sensor_id;sensor_type;location;lat;lon;timestamp;pressure;altitude;pressure_sealevel;temperature;humidity
82858;BME280;72620;47.774;9.620;2024-01-07T00:02:06;95612.56;;;2.39;89.16
82858;BME280;72620;47.774;9.620;2024-01-07T00:04:34;95609.19;;;2.38;89.60
82858;BME280;72620;47.774;9.620;2024-01-07T00:07:01;95607.28;;;2.31;89.57
82858;BME280;72620;47.774;9.620;2024-01-07T00:09:28;95608.06;;;2.31;89.75
82858;BME280;72620;47.774;9.620;2024-01-07T00:11:55;95603.13;;;2.30;89.18
82858;BME280;72620;47.774;9.620;2024-01-07T00:14:22;95604.97;;;2.28;89.84
82858;BME280;72620;47.774;9.620;2024-01-07T00:16:49;95603.34;;;2.27;89.97
82858;BME280;72620;47.774;9.620;2024-01-07T00:19:17;95603.34;;;2.27;89.87
82858;BME280;72620;47.774;9.620;2024-01-07T00:21:44;95596.56;;;2.27;89.49
82858;BME280;72620;47.774;9.620;2024-01-07T00:24:11;95596.56;;;2.27;89.49
82858;BME280;72620;47.774;9.620;2024-01-07T00:26:39;95603.59;;;2.24;90.13
82858;BME280;72620;47.774;9.620;2024-01-07T00:29:06;95601.75;;;2.26;90.08
82858;BME280;72620;47.774;9.620;2024-01-07T00:31:33;95597.59;;;2.25;89.50
82858;BME280;72620;47.774;9.620;2024-01-07T00:34:00;95603.81;;;2.20;90.03
82858;BME280;72620;47.774;9.620;2024-01-07T00:36:27;95601.50;;;2.17;89.76
82858;BME280;72620;47.774;9.620;2024-01-07T00:38:54;95611.75;;;2.16;88.81
82858;BME280;72620;47.774;9.620;2024-01-07T00:41:21;95602.56;;;2.15;89.78
82858;BME280;72620;47.774;9.620;2024-01-07T00:43:48;95605.44;;;2.10;90.13
82858;BME280;72620;47.774;9.620;2024-01-07T00:46:15;95609.00;;;2.08;89.93
82858;BME280;72620;47.774;9.620;2024-01-07T00:48:43;95604.50;;;2.11;90.73
82858;BME280;72620;47.774;9.620;2024-01-07T00:51:10;95609.44;;;2.13;90.20
82858;BME280;72620;47.774;9.620;2024-01-07T00:53:37;95610.84;;;2.17;91.16
82858;BME280;72620;47.774;9.620;2024-01-07T00:56:05;95602.22;;;2.19;90.25
82858;BME280;72620;47.774;9.620;2024-01-07T00:58:33;95607.97;;;2.22;89.69
82858;BME280;72620;47.774;9.620;2024-01-07T01:01:00;95602.91;;;2.22;89.93
82858;BME280;72620;47.774;9.620;2024-01-07T01:03:28;95608.66;;;2.24;89.72
82858;BME280;72620;47.774;9.620;2024-01-07T01:05:56;95601.97;;;2.22;89.81
82858;BME280;72620;47.774;9.620;2024-01-07T01:08:23;95608.66;;;2.24;90.06
82858;BME280;72620;47.774;9.620;2024-01-07T01:10:50;95620.84;;;2.18;89.61
82858;BME280;72620;47.774;9.620;2024-01-07T01:13:17;95615.09;;;2.16;89.82
82858;BME280;72620;47.774;9.620;2024-01-07T01:15:44;95614.97;;;2.18;89.55
82858;BME280;72620;47.774;9.620;2024-01-07T01:18:11;95620.38;;;2.13;89.13
82858;BME280;72620;47.774;9.620;2024-01-07T01:20:39;95617.75;;;2.15;89.36
82858;BME280;72620;47.774;9.620;2024-01-07T01:23:06;95626.38;;;2.12;89.51
82858;BME280;72620;47.774;9.620;2024-01-07T01:25:33;95626.47;;;2.11;89.54
82858;BME280;72620;47.774;9.620;2024-01-07T01:28:02;95622.47;;;2.08;89.56
82858;BME280;72620;47.774;9.620;2024-01-07T01:30:30;95624.06;;;2.09;90.32
82858;BME280;72620;47.774;9.620;2024-01-07T01:32:58;95618.88;;;2.11;90.20
82858;BME280;72620;47.774;9.620;2024-01-07T01:35:26;95622.22;;;2.11;89.77
82858;BME280;72620;47.774;9.620;2024-01-07T01:37:53;95626.13;;;2.04;89.36
82858;BME280;72620;47.774;9.620;2024-01-07T01:40:23;95620.03;;;2.07;89.86
82858;BME280;72620;47.774;9.620;2024-01-07T01:42:50;95625.22;;;2.05;89.58
82858;BME280;72620;47.774;9.620;2024-01-07T01:45:17;95619.00;;;2.09;89.53
82858;BME280;72620;47.774;9.620;2024-01-07T01:47:46;95624.06;;;2.09;89.55
82858;BME280;72620;47.774;9.620;2024-01-07T01:50:15;95624.06;;;2.09;89.46
82858;BME280;72620;47.774;9.620;2024-01-07T01:52:45;95621.66;;;2.08;89.56
82858;BME280;72620;47.774;9.620;2024-01-07T01:55:14;95617.50;;;2.07;88.97
82858;BME280;72620;47.774;9.620;2024-01-07T01:57:41;95621.75;;;2.06;89.35
82858;BME280;72620;47.774;9.620;2024-01-07T02:00:11;95616.94;;;2.03;89.31
82858;BME280;72620;47.774;9.620;2024-01-07T02:02:38;95624.53;;;2.03;89.32
82858;BME280;72620;47.774;9.620;2024-01-07T02:05:06;95623.03;;;2.01;89.43
82858;BME280;72620;47.774;9.620;2024-01-07T02:07:33;95623.03;;;2.01;89.66
82858;BME280;72620;47.774;9.620;2024-01-07T02:10:00;95618.88;;;2.00;89.13
82858;BME280;72620;47.774;9.620;2024-01-07T02:12:28;95619.22;;;1.95;89.31
82858;BME280;72620;47.774;9.620;2024-01-07T02:14:55;95615.78;;;1.96;89.29
82858;BME280;72620;47.774;9.620;2024-01-07T02:17:22;95616.81;;;1.94;89.04
82858;BME280;72620;47.774;9.620;2024-01-07T02:19:49;95621.06;;;1.93;89.31
82858;BME280;72620;47.774;9.620;2024-01-07T02:22:16;95609.34;;;1.92;90.17
82858;BME280;72620;47.774;9.620;2024-01-07T02:24:45;95610.94;;;1.93;90.20
82858;BME280;72620;47.774;9.620;2024-01-07T02:27:13;95612.56;;;1.94;89.59
82858;BME280;72620;47.774;9.620;2024-01-07T02:29:40;95614.97;;;1.96;90.10
82858;BME280;72620;47.774;9.620;2024-01-07T02:32:07;95619.00;;;2.09;93.46
82858;BME280;72620;47.774;9.620;2024-01-07T02:34:34;95618.31;;;2.07;89.82
82858;BME280;72620;47.774;9.620;2024-01-07T02:37:01;95619.94;;;2.08;89.48
82858;BME280;72620;47.774;9.620;2024-01-07T02:39:28;95609.81;;;2.08;89.58
82858;BME280;72620;47.774;9.620;2024-01-07T02:41:55;95613.47;;;2.04;89.64
82858;BME280;72620;47.774;9.620;2024-01-07T02:44:22;95610.03;;;2.05;89.73
82858;BME280;72620;47.774;9.620;2024-01-07T02:46:49;95622.09;;;2.02;89.48
82858;BME280;72620;47.774;9.620;2024-01-07T02:49:16;95613.47;;;2.04;89.77
82858;BME280;72620;47.774;9.620;2024-01-07T02:51:44;95611.41;;;2.09;90.00
82858;BME280;72620;47.774;9.620;2024-01-07T02:54:16;95618.88;;;2.11;90.10
82858;BME280;72620;47.774;9.620;2024-01-07T02:56:43;95619.94;;;2.08;89.49
82858;BME280;72620;47.774;9.620;2024-01-07T02:59:14;95608.41;;;2.04;89.24
82858;BME280;72620;47.774;9.620;2024-01-07T03:01:41;95614.06;;;2.08;89.72
82858;BME280;72620;47.774;9.620;2024-01-07T03:04:10;95607.28;;;2.08;89.38
82858;BME280;72620;47.774;9.620;2024-01-07T03:06:39;95609.91;;;2.07;89.98
82858;BME280;72620;47.774;9.620;2024-01-07T03:09:07;95619.94;;;2.08;89.58
82858;BME280;72620;47.774;9.620;2024-01-07T03:11:39;95617.63;;;2.05;89.36
82858;BME280;72620;47.774;9.620;2024-01-07T03:14:08;95606.81;;;2.03;89.43
82858;BME280;72620;47.774;9.620;2024-01-07T03:16:36;95618.31;;;2.07;90.51
82858;BME280;72620;47.774;9.620;2024-01-07T03:19:03;95613.81;;;2.11;90.02
82858;BME280;72620;47.774;9.620;2024-01-07T03:21:31;95611.63;;;2.17;89.84
82858;BME280;72620;47.774;9.620;2024-01-07T03:23:58;95619.94;;;2.19;89.44
82858;BME280;72620;47.774;9.620;2024-01-07T03:26:29;95618.44;;;2.17;89.63
82858;BME280;72620;47.774;9.620;2024-01-07T03:29:00;95614.06;;;2.19;89.94
82858;BME280;72620;47.774;9.620;2024-01-07T03:31:28;95615.56;;;2.22;90.02
82858;BME280;72620;47.774;9.620;2024-01-07T03:33:56;95609.34;;;2.26;89.60
82858;BME280;72620;47.774;9.620;2024-01-07T03:36:25;95617.84;;;2.25;89.48
82858;BME280;72620;47.774;9.620;2024-01-07T03:38:55;95613.94;;;2.20;90.12
82858;BME280;72620;47.774;9.620;2024-01-07T03:41:22;95610.50;;;2.22;89.98
82858;BME280;72620;47.774;9.620;2024-01-07T03:43:49;95621.31;;;2.24;89.95
82858;BME280;72620;47.774;9.620;2024-01-07T03:46:17;95619.34;;;2.27;89.49
82858;BME280;72620;47.774;9.620;2024-01-07T03:48:44;95618.53;;;2.27;89.68
82858;BME280;72620;47.774;9.620;2024-01-07T03:51:12;95618.53;;;2.27;89.71
82858;BME280;72620;47.774;9.620;2024-01-07T03:53:39;95615.31;;;2.25;90.23
82858;BME280;72620;47.774;9.620;2024-01-07T03:56:06;95615.31;;;2.25;90.05
82858;BME280;72620;47.774;9.620;2024-01-07T03:58:34;95621.06;;;2.27;90.15
82858;BME280;72620;47.774;9.620;2024-01-07T04:01:01;95620.97;;;2.28;90.31
82858;BME280;72620;47.774;9.620;2024-01-07T04:03:32;95618.44;;;2.28;90.34
82858;BME280;72620;47.774;9.620;2024-01-07T04:05:59;95619.94;;;2.31;90.35
82858;BME280;72620;47.774;9.620;2024-01-07T04:08:26;95632.81;;;2.28;91.32
82858;BME280;72620;47.774;9.620;2024-01-07T04:10:55;95623.38;;;2.30;90.22
82858;BME280;72620;47.774;9.620;2024-01-07T04:13:22;95625.91;;;2.30;90.43
82858;BME280;72620;47.774;9.620;2024-01-07T04:15:49;95626.72;;;2.30;90.18
82858;BME280;72620;47.774;9.620;2024-01-07T04:18:16;95619.81;;;2.32;90.58
82858;BME280;72620;47.774;9.620;2024-01-07T04:20:43;95624.75;;;2.34;90.30
82858;BME280;72620;47.774;9.620;2024-01-07T04:23:10;95627.75;;;2.39;91.16
82858;BME280;72620;47.774;9.620;2024-01-07T04:25:37;95624.31;;;2.40;90.76
82858;BME280;72620;47.774;9.620;2024-01-07T04:28:06;95626.72;;;2.41;90.41
82858;BME280;72620;47.774;9.620;2024-01-07T04:30:33;95637.06;;;2.38;89.96
82858;BME280;72620;47.774;9.620;2024-01-07T04:33:00;95623.97;;;2.33;89.92
82858;BME280;72620;47.774;9.620;2024-01-07T04:35:28;95626.50;;;2.33;90.69
82858;BME280;72620;47.774;9.620;2024-01-07T04:37:55;95636.63;;;2.33;90.37
82858;BME280;72620;47.774;9.620;2024-01-07T04:40:22;95628.31;;;2.31;90.01
82858;BME280;72620;47.774;9.620;2024-01-07T04:42:49;95635.91;;;2.31;90.55
82858;BME280;72620;47.774;9.620;2024-01-07T04:45:16;95626.59;;;2.32;90.09
82858;BME280;72620;47.774;9.620;2024-01-07T04:47:43;95644.31;;;2.32;89.91
82858;BME280;72620;47.774;9.620;2024-01-07T04:50:11;95648.47;;;2.33;89.83
82858;BME280;72620;47.774;9.620;2024-01-07T04:52:38;95645.34;;;2.29;90.23
82858;BME280;72620;47.774;9.620;2024-01-07T04:55:05;95642.94;;;2.28;89.71
82858;BME280;72620;47.774;9.620;2024-01-07T04:57:32;95645.69;;;2.25;90.40
82858;BME280;72620;47.774;9.620;2024-01-07T05:00:00;95644.19;;;2.22;90.29
82858;BME280;72620;47.774;9.620;2024-01-07T05:02:27;95652.50;;;2.24;89.75
82858;BME280;72620;47.774;9.620;2024-01-07T05:04:54;95659.03;;;2.27;90.02
82858;BME280;72620;47.774;9.620;2024-01-07T05:07:22;95653.97;;;2.27;89.64
82858;BME280;72620;47.774;9.620;2024-01-07T05:09:49;95658.25;;;2.26;89.73
82858;BME280;72620;47.774;9.620;2024-01-07T05:12:16;95661.47;;;2.28;89.89
82858;BME280;72620;47.774;9.620;2024-01-07T05:14:43;95659.97;;;2.26;89.71
82858;BME280;72620;47.774;9.620;2024-01-07T05:17:10;95658.34;;;2.25;89.91
82858;BME280;72620;47.774;9.620;2024-01-07T05:19:41;95657.56;;;2.24;90.06
82858;BME280;72620;47.774;9.620;2024-01-07T05:22:08;95655.94;;;2.23;89.56
82858;BME280;72620;47.774;9.620;2024-01-07T05:24:37;95666.28;;;2.20;89.90
82858;BME280;72620;47.774;9.620;2024-01-07T05:27:05;95665.50;;;2.19;89.42
82858;BME280;72620;47.774;9.620;2024-01-07T05:29:34;95663.66;;;2.10;89.51
82858;BME280;72620;47.774;9.620;2024-01-07T05:32:04;95672.16;;;2.09;90.38
82858;BME280;72620;47.774;9.620;2024-01-07T05:34:39;95663.88;;;2.07;89.52
82858;BME280;72620;47.774;9.620;2024-01-07T05:37:06;95666.41;;;2.07;89.49
82858;BME280;72620;47.774;9.620;2024-01-07T05:39:33;95669.16;;;2.04;90.90
82858;BME280;72620;47.774;9.620;2024-01-07T05:42:00;95668.94;;;2.07;89.94
82858;BME280;72620;47.774;9.620;2024-01-07T05:44:27;95673.09;;;2.08;90.45
82858;BME280;72620;47.774;9.620;2024-01-07T05:46:55;95681.13;;;2.13;90.66
82858;BME280;72620;47.774;9.620;2024-01-07T05:49:22;95674.47;;;2.12;90.01
82858;BME280;72620;47.774;9.620;2024-01-07T05:51:50;95674.69;;;2.09;89.92
82858;BME280;72620;47.774;9.620;2024-01-07T05:54:17;95677.69;;;2.14;89.96
82858;BME280;72620;47.774;9.620;2024-01-07T05:56:44;95678.84;;;2.10;90.13
82858;BME280;72620;47.774;9.620;2024-01-07T05:59:11;95677.91;;;2.11;89.87
82858;BME280;72620;47.774;9.620;2024-01-07T06:01:39;95682.50;;;2.06;90.54
82858;BME280;72620;47.774;9.620;2024-01-07T06:04:06;95681.81;;;2.04;90.23
82858;BME280;72620;47.774;9.620;2024-01-07T06:06:33;95685.03;;;2.06;90.13
82858;BME280;72620;47.774;9.620;2024-01-07T06:09:01;95673.09;;;2.08;90.45
82858;BME280;72620;47.774;9.620;2024-01-07T06:11:29;95681.59;;;2.07;90.50
82858;BME280;72620;47.774;9.620;2024-01-07T06:13:56;95685.03;;;2.06;90.24
82858;BME280;72620;47.774;9.620;2024-01-07T06:16:24;95676.75;;;2.04;90.48
82858;BME280;72620;47.774;9.620;2024-01-07T06:18:51;95689.41;;;2.04;90.05
82858;BME280;72620;47.774;9.620;2024-01-07T06:21:19;95695.41;;;2.03;90.58
82858;BME280;72620;47.774;9.620;2024-01-07T06:23:46;95683.44;;;2.05;90.66
82858;BME280;72620;47.774;9.620;2024-01-07T06:26:13;95689.19;;;2.07;90.38
82858;BME280;72620;47.774;9.620;2024-01-07T06:28:39;95690.34;;;2.03;90.63
82858;BME280;72620;47.774;9.620;2024-01-07T06:31:06;95694.81;;;2.00;91.05
82858;BME280;72620;47.774;9.620;2024-01-07T06:33:34;95685.97;;;2.05;90.78
82858;BME280;72620;47.774;9.620;2024-01-07T06:36:01;95688.97;;;2.10;90.76
82858;BME280;72620;47.774;9.620;2024-01-07T06:38:28;95688.97;;;2.10;90.76
82858;BME280;72620;47.774;9.620;2024-01-07T06:40:55;95683.44;;;2.16;90.49
82858;BME280;72620;47.774;9.620;2024-01-07T06:43:30;95688.38;;;2.18;90.51
82858;BME280;72620;47.774;9.620;2024-01-07T06:45:57;95693.56;;;2.16;90.53
82858;BME280;72620;47.774;9.620;2024-01-07T06:48:24;95701.97;;;2.17;91.03
82858;BME280;72620;47.774;9.620;2024-01-07T06:50:51;95703.59;;;2.18;90.79
82858;BME280;72620;47.774;9.620;2024-01-07T06:53:18;95708.88;;;2.15;90.99
82858;BME280;72620;47.774;9.620;2024-01-07T06:55:45;95700.22;;;2.17;90.85
82858;BME280;72620;47.774;9.620;2024-01-07T06:58:12;95711.50;;;2.13;91.03
82858;BME280;72620;47.774;9.620;2024-01-07T07:00:39;95710.47;;;2.16;91.36
82858;BME280;72620;47.774;9.620;2024-01-07T07:03:08;95721.31;;;2.18;91.09
82858;BME280;72620;47.774;9.620;2024-01-07T07:05:35;95720.47;;;2.17;91.05
82858;BME280;72620;47.774;9.620;2024-01-07T07:08:02;95721.22;;;2.19;91.54
82858;BME280;72620;47.774;9.620;2024-01-07T07:10:29;95719.38;;;2.22;91.30
82858;BME280;72620;47.774;9.620;2024-01-07T07:12:58;95723.50;;;2.22;90.29
82858;BME280;72620;47.774;9.620;2024-01-07T07:15:25;95720.41;;;2.19;90.92
82858;BME280;72620;47.774;9.620;2024-01-07T07:17:55;95724.44;;;2.22;90.23
82858;BME280;72620;47.774;9.620;2024-01-07T07:20:22;95725.56;;;2.17;90.96
82858;BME280;72620;47.774;9.620;2024-01-07T07:22:49;95729.00;;;2.16;91.72
82858;BME280;72620;47.774;9.620;2024-01-07T07:25:18;95736.41;;;2.31;92.61
82858;BME280;72620;47.774;9.620;2024-01-07T07:27:45;95733.19;;;2.29;90.59
82858;BME280;72620;47.774;9.620;2024-01-07T07:30:12;95736.63;;;2.28;90.88
82858;BME280;72620;47.774;9.620;2024-01-07T07:32:40;95732.38;;;2.28;90.06
82858;BME280;72620;47.774;9.620;2024-01-07T07:35:11;95736.50;;;2.29;90.63
82858;BME280;72620;47.774;9.620;2024-01-07T07:37:38;95744.91;;;2.30;90.14
82858;BME280;72620;47.774;9.620;2024-01-07T07:40:05;95745.59;;;2.32;90.19
82858;BME280;72620;47.774;9.620;2024-01-07T07:42:33;95741.91;;;2.36;90.45
82858;BME280;72620;47.774;9.620;2024-01-07T07:45:00;95741.91;;;2.36;90.01
82858;BME280;72620;47.774;9.620;2024-01-07T07:47:29;95752.72;;;2.38;89.95
82858;BME280;72620;47.774;9.620;2024-01-07T07:49:57;95745.84;;;2.29;90.34
82858;BME280;72620;47.774;9.620;2024-01-07T07:52:24;95754.00;;;2.32;90.87
82858;BME280;72620;47.774;9.620;2024-01-07T07:54:52;95752.16;;;2.34;90.63
82858;BME280;72620;47.774;9.620;2024-01-07T07:57:21;95754.56;;;2.36;90.41
82858;BME280;72620;47.774;9.620;2024-01-07T07:59:48;95759.44;;;2.39;90.23
82858;BME280;72620;47.774;9.620;2024-01-07T08:02:15;95758.28;;;2.43;90.42
82858;BME280;72620;47.774;9.620;2024-01-07T08:04:43;95752.84;;;2.36;89.98
82858;BME280;72620;47.774;9.620;2024-01-07T08:07:10;95759.44;;;2.39;90.17
82858;BME280;72620;47.774;9.620;2024-01-07T08:09:38;95755.19;;;2.39;90.32
82858;BME280;72620;47.774;9.620;2024-01-07T08:12:06;95763.34;;;2.43;89.78
82858;BME280;72620;47.774;9.620;2024-01-07T08:14:33;95768.66;;;2.40;91.15
82858;BME280;72620;47.774;9.620;2024-01-07T08:17:00;95772.22;;;2.37;91.17
82858;BME280;72620;47.774;9.620;2024-01-07T08:19:27;95774.16;;;2.45;90.78
82858;BME280;72620;47.774;9.620;2024-01-07T08:21:54;95776.59;;;2.46;90.66
82858;BME280;72620;47.774;9.620;2024-01-07T08:24:23;95771.28;;;2.49;90.50
82858;BME280;72620;47.774;9.620;2024-01-07T08:26:50;95772.56;;;2.55;90.15
82858;BME280;72620;47.774;9.620;2024-01-07T08:29:18;95777.84;;;2.52;90.75
82858;BME280;72620;47.774;9.620;2024-01-07T08:31:45;95777.50;;;2.56;90.51
82858;BME280;72620;47.774;9.620;2024-01-07T08:34:12;95776.25;;;2.62;90.62
82858;BME280;72620;47.774;9.620;2024-01-07T08:36:42;95779.50;;;2.64;91.13
82858;BME280;72620;47.774;9.620;2024-01-07T08:39:09;95775.66;;;2.69;90.13
82858;BME280;72620;47.774;9.620;2024-01-07T08:41:36;95774.06;;;2.68;89.95
82858;BME280;72620;47.774;9.620;2024-01-07T08:44:03;95776.28;;;2.73;90.42
82858;BME280;72620;47.774;9.620;2024-01-07T08:46:30;95776.72;;;2.78;90.53
82858;BME280;72620;47.774;9.620;2024-01-07T08:48:57;95780.31;;;2.75;90.35
82858;BME280;72620;47.774;9.620;2024-01-07T08:51:25;95777.97;;;2.83;89.41
82858;BME280;72620;47.774;9.620;2024-01-07T08:53:52;95773.38;;;2.88;90.07
82858;BME280;72620;47.774;9.620;2024-01-07T08:56:19;95780.97;;;2.88;90.35
82858;BME280;72620;47.774;9.620;2024-01-07T08:58:46;95780.03;;;2.89;89.86
82858;BME280;72620;47.774;9.620;2024-01-07T09:01:13;95789.06;;;2.93;89.58
82858;BME280;72620;47.774;9.620;2024-01-07T09:03:41;95795.84;;;2.93;90.47
82858;BME280;72620;47.774;9.620;2024-01-07T09:06:09;95792.38;;;2.94;89.79
82858;BME280;72620;47.774;9.620;2024-01-07T09:08:36;95796.75;;;2.92;89.87
82858;BME280;72620;47.774;9.620;2024-01-07T09:11:05;95796.66;;;2.93;89.13
82858;BME280;72620;47.774;9.620;2024-01-07T09:13:34;95804.25;;;2.93;90.14
82858;BME280;72620;47.774;9.620;2024-01-07T09:16:01;95807.34;;;2.97;90.43
82858;BME280;72620;47.774;9.620;2024-01-07T09:18:28;95801.13;;;3.01;89.71
82858;BME280;72620;47.774;9.620;2024-01-07T09:20:55;95801.38;;;3.09;89.02
82858;BME280;72620;47.774;9.620;2024-01-07T09:23:23;95809.66;;;3.11;88.89
82858;BME280;72620;47.774;9.620;2024-01-07T09:25:50;95812.88;;;3.13;88.73
82858;BME280;72620;47.774;9.620;2024-01-07T09:28:17;95809.66;;;3.11;89.23
82858;BME280;72620;47.774;9.620;2024-01-07T09:30:44;95811.50;;;3.09;88.90
82858;BME280;72620;47.774;9.620;2024-01-07T09:33:11;95817.97;;;3.13;89.58
82858;BME280;72620;47.774;9.620;2024-01-07T09:35:39;95817.97;;;3.13;89.58
82858;BME280;72620;47.774;9.620;2024-01-07T09:38:06;95818.28;;;3.20;88.77
82858;BME280;72620;47.774;9.620;2024-01-07T09:40:38;95822.06;;;3.25;88.35
82858;BME280;72620;47.774;9.620;2024-01-07T09:43:06;95826.03;;;3.29;88.57
82858;BME280;72620;47.774;9.620;2024-01-07T09:45:36;95820.25;;;3.38;88.42
82858;BME280;72620;47.774;9.620;2024-01-07T09:48:06;95826.22;;;3.37;88.01
82858;BME280;72620;47.774;9.620;2024-01-07T09:50:34;95825.31;;;3.38;86.74
82858;BME280;72620;47.774;9.620;2024-01-07T09:53:02;95829.56;;;3.49;88.89
82858;BME280;72620;47.774;9.620;2024-01-07T09:58:51;95819.50;;;3.58;88.44
82858;BME280;72620;47.774;9.620;2024-01-07T10:01:19;95819.38;;;3.60;86.43
82858;BME280;72620;47.774;9.620;2024-01-07T10:03:46;95815.34;;;3.57;86.09
82858;BME280;72620;47.774;9.620;2024-01-07T10:06:18;95816.75;;;3.50;87.42
82858;BME280;72620;47.774;9.620;2024-01-07T10:08:46;95824.44;;;3.60;87.22
82858;BME280;72620;47.774;9.620;2024-01-07T10:11:15;95820.75;;;3.64;86.63
82858;BME280;72620;47.774;9.620;2024-01-07T10:13:45;95828.94;;;3.67;87.82
82858;BME280;72620;47.774;9.620;2024-01-07T10:16:14;95827.81;;;3.60;85.41
82858;BME280;72620;47.774;9.620;2024-01-07T10:18:41;95832.06;;;3.60;86.28
82858;BME280;72620;47.774;9.620;2024-01-07T10:21:09;95824.31;;;3.61;86.83
82858;BME280;72620;47.774;9.620;2024-01-07T10:23:36;95823.63;;;3.59;86.20
82858;BME280;72620;47.774;9.620;2024-01-07T10:26:03;95830.25;;;3.51;87.64
82858;BME280;72620;47.774;9.620;2024-01-07T10:28:45;95824.84;;;3.44;86.05
82858;BME280;72620;47.774;9.620;2024-01-07T10:31:12;95826.88;;;3.50;86.62
82858;BME280;72620;47.774;9.620;2024-01-07T10:33:40;95829.19;;;3.53;87.60
82858;BME280;72620;47.774;9.620;2024-01-07T10:36:09;95829.53;;;3.60;86.62
82858;BME280;72620;47.774;9.620;2024-01-07T10:38:36;95823.88;;;3.67;86.32
82858;BME280;72620;47.774;9.620;2024-01-07T10:41:11;95826.81;;;3.73;84.58
82858;BME280;72620;47.774;9.620;2024-01-07T10:43:39;95827.06;;;3.81;85.66
82858;BME280;72620;47.774;9.620;2024-01-07T10:46:09;95826.38;;;3.79;85.54
82858;BME280;72620;47.774;9.620;2024-01-07T10:48:38;95828.09;;;3.78;85.93
82858;BME280;72620;47.774;9.620;2024-01-07T10:51:20;95834.91;;;3.78;85.11
82858;BME280;72620;47.774;9.620;2024-01-07T10:53:57;95828.91;;;3.79;85.52
82858;BME280;72620;47.774;9.620;2024-01-07T10:56:33;95827.78;;;3.72;86.73
82858;BME280;72620;47.774;9.620;2024-01-07T10:59:11;95829.38;;;3.73;85.62
82858;BME280;72620;47.774;9.620;2024-01-07T11:01:39;95828.50;;;3.62;85.40
82858;BME280;72620;47.774;9.620;2024-01-07T11:04:14;95831.97;;;3.50;85.92
82858;BME280;72620;47.774;9.620;2024-01-07T11:07:12;95834.03;;;3.45;87.02
82858;BME280;72620;47.774;9.620;2024-01-07T11:10:10;95829.91;;;3.44;86.55
82858;BME280;72620;47.774;9.620;2024-01-07T11:13:00;95829.31;;;3.41;85.77
82858;BME280;72620;47.774;9.620;2024-01-07T11:18:19;95825.72;;;3.54;86.70
82858;BME280;72620;47.774;9.620;2024-01-07T11:20:47;95825.28;;;3.49;85.43
82858;BME280;72620;47.774;9.620;2024-01-07T11:23:34;95835.53;;;3.48;86.44
82858;BME280;72620;47.774;9.620;2024-01-07T11:26:09;95826.78;;;3.41;85.39
82858;BME280;72620;47.774;9.620;2024-01-07T11:28:44;95826.91;;;3.39;86.19
82858;BME280;72620;47.774;9.620;2024-01-07T11:31:19;95830.59;;;3.46;86.85
82858;BME280;72620;47.774;9.620;2024-01-07T11:33:49;95833.59;;;3.51;86.43
82858;BME280;72620;47.774;9.620;2024-01-07T11:36:18;95830.38;;;3.49;86.04
82858;BME280;72620;47.774;9.620;2024-01-07T11:38:48;95820.66;;;3.54;84.46
82858;BME280;72620;47.774;9.620;2024-01-07T11:41:20;95837.97;;;3.49;85.41
82858;BME280;72620;47.774;9.620;2024-01-07T11:43:54;95829.22;;;3.42;85.44
82858;BME280;72620;47.774;9.620;2024-01-07T11:46:32;95829.09;;;3.44;84.93
82858;BME280;72620;47.774;9.620;2024-01-07T11:49:00;95829.09;;;3.44;86.20
82858;BME280;72620;47.774;9.620;2024-01-07T11:51:29;95836.47;;;3.47;86.43
82858;BME280;72620;47.774;9.620;2024-01-07T11:53:59;95834.50;;;3.50;86.49
82858;BME280;72620;47.774;9.620;2024-01-07T11:56:28;95836.81;;;3.53;86.96
82858;BME280;72620;47.774;9.620;2024-01-07T11:58:55;95840.91;;;3.65;88.08
82858;BME280;72620;47.774;9.620;2024-01-07T12:01:24;95833.66;;;3.61;85.20
82858;BME280;72620;47.774;9.620;2024-01-07T12:03:53;95838.41;;;3.54;84.78
82858;BME280;72620;47.774;9.620;2024-01-07T12:06:21;95839.44;;;3.52;85.24
82858;BME280;72620;47.774;9.620;2024-01-07T12:08:48;95837.38;;;3.57;85.68
82858;BME280;72620;47.774;9.620;2024-01-07T12:11:16;95829.53;;;3.60;84.04
82858;BME280;72620;47.774;9.620;2024-01-07T12:13:43;95829.75;;;3.57;85.21
82858;BME280;72620;47.774;9.620;2024-01-07T12:16:11;95842.78;;;3.52;84.63
82858;BME280;72620;47.774;9.620;2024-01-07T12:18:39;95835.66;;;3.57;84.83
82858;BME280;72620;47.774;9.620;2024-01-07T12:21:07;95838.41;;;3.54;84.08
82858;BME280;72620;47.774;9.620;2024-01-07T12:23:39;95839.09;;;3.56;84.36
82858;BME280;72620;47.774;9.620;2024-01-07T12:26:11;95845.47;;;3.51;84.44
82858;BME280;72620;47.774;9.620;2024-01-07T12:28:39;95844.78;;;3.49;83.88
82858;BME280;72620;47.774;9.620;2024-01-07T12:31:07;95844.34;;;3.33;83.07
82858;BME280;72620;47.774;9.620;2024-01-07T12:33:37;95843.31;;;3.13;85.03
82858;BME280;72620;47.774;9.620;2024-01-07T12:36:06;95848.72;;;3.09;84.95
82858;BME280;72620;47.774;9.620;2024-01-07T12:38:36;95842.63;;;3.11;87.00
82858;BME280;72620;47.774;9.620;2024-01-07T12:41:05;95852.31;;;3.06;84.85
82858;BME280;72620;47.774;9.620;2024-01-07T12:43:33;95851.50;;;3.06;86.11
82858;BME280;72620;47.774;9.620;2024-01-07T12:46:00;95861.63;;;3.06;85.68
82858;BME280;72620;47.774;9.620;2024-01-07T12:48:32;95861.41;;;2.98;84.57
82858;BME280;72620;47.774;9.620;2024-01-07T12:51:00;95869.09;;;2.96;85.18
82858;BME280;72620;47.774;9.620;2024-01-07T12:53:28;95866.81;;;2.93;85.38
82858;BME280;72620;47.774;9.620;2024-01-07T12:55:55;95858.97;;;2.96;86.53
82858;BME280;72620;47.774;9.620;2024-01-07T12:58:22;95864.97;;;2.95;84.60
82858;BME280;72620;47.774;9.620;2024-01-07T13:00:50;95864.97;;;2.95;85.36
82858;BME280;72620;47.774;9.620;2024-01-07T13:03:17;95863.59;;;2.91;84.29
82858;BME280;72620;47.774;9.620;2024-01-07T13:05:47;95874.41;;;2.82;85.46
82858;BME280;72620;47.774;9.620;2024-01-07T13:08:16;95872.56;;;2.84;85.69
82858;BME280;72620;47.774;9.620;2024-01-07T13:10:49;95876.69;;;2.74;85.29
82858;BME280;72620;47.774;9.620;2024-01-07T13:13:17;95880.38;;;2.70;85.19
82858;BME280;72620;47.774;9.620;2024-01-07T13:15:44;95884.41;;;2.72;86.25
82858;BME280;72620;47.774;9.620;2024-01-07T13:18:12;95885.22;;;2.73;86.41
82858;BME280;72620;47.774;9.620;2024-01-07T13:20:47;95888.53;;;2.62;86.63
82858;BME280;72620;47.774;9.620;2024-01-07T13:23:14;95882.78;;;2.71;92.48